Time;durP1;ratioP1;P1;durP2;ratioP2;P2;SDS_P1;SDS_P2;PMS_P1;PMS_P2;Temp;Humidity;BMP_temperature;BMP_pressure;BME280_temperature;BME280_humidity;BME280_pressure;Samples;Min_cycle;Max_cycle;Signal;HPM_P1;HPM_P2
2023/05/10 00:01:24;;;;;;;13.10;10.38;;;;;19.60;100654.00;;;;5053686;28;20195;-76
2023/05/10 00:03:52;;;;;;;15.25;9.65;;;;;19.60;100655.00;;;;5054552;28;20202;-77
2023/05/10 00:06:20;;;;;;;13.48;9.73;;;;;19.60;100650.00;;;;5062021;28;20202;-77
2023/05/10 00:08:47;;;;;;;13.85;9.73;;;;;19.60;100649.00;;;;5047623;28;20202;-77
2023/05/10 00:11:14;;;;;;;16.23;10.27;;;;;19.60;100648.00;;;;5049447;28;20196;-77
2023/05/10 00:13:43;;;;;;;15.27;10.95;;;;;19.60;100654.00;;;;5047819;28;20191;-76
2023/05/10 00:16:11;;;;;;;13.82;10.63;;;;;19.60;100655.00;;;;5048432;28;20719;-77
2023/05/10 00:18:39;;;;;;;14.68;11.00;;;;;19.60;100654.00;;;;5046695;28;20299;-77
2023/05/10 00:21:06;;;;;;;13.80;10.25;;;;;19.60;100644.00;;;;5053184;28;20195;-77
2023/05/10 00:23:34;;;;;;;15.23;10.95;;;;;19.60;100653.00;;;;5048000;28;20202;-77
2023/05/10 00:26:01;;;;;;;12.38;10.05;;;;;19.60;100651.00;;;;5047438;28;20203;-77
2023/05/10 00:28:29;;;;;;;14.30;10.25;;;;;19.60;100645.00;;;;5057425;28;20202;-76
2023/05/10 00:30:58;;;;;;;13.73;10.43;;;;;19.60;100644.00;;;;5047548;28;20250;-76
2023/05/10 00:33:25;;;;;;;14.55;10.13;;;;;19.60;100645.00;;;;5052519;28;20211;-77
2023/05/10 00:35:52;;;;;;;13.43;10.18;;;;;19.60;100648.00;;;;5047773;28;20231;-77
2023/05/10 00:38:20;;;;;;;16.48;10.93;;;;;19.60;100649.00;;;;5051142;28;20226;-76
2023/05/10 00:40:47;;;;;;;14.40;10.93;;;;;19.60;100645.00;;;;5048125;28;21126;-77
2023/05/10 00:43:14;;;;;;;15.55;11.05;;;;;19.60;100644.00;;;;5047089;28;20196;-76
2023/05/10 00:45:42;;;;;;;13.70;10.07;;;;;19.60;100648.00;;;;5058892;28;20207;-77
2023/05/10 00:48:11;;;;;;;14.52;9.88;;;;;19.60;100648.00;;;;5048362;28;20192;-76
2023/05/10 00:50:39;;;;;;;17.17;11.57;;;;;19.60;100646.00;;;;5054896;28;20196;-77
2023/05/10 00:53:07;;;;;;;14.77;10.75;;;;;19.60;100641.00;;;;5056782;28;20264;-77
2023/05/10 00:55:34;;;;;;;15.57;10.63;;;;;19.60;100644.00;;;;5053091;28;20297;-76
2023/05/10 00:58:02;;;;;;;13.63;9.82;;;;;19.60;100645.00;;;;5053461;28;20223;-76
2023/05/10 01:00:29;;;;;;;14.55;10.00;;;;;19.60;100650.00;;;;5051179;28;20207;-77
2023/05/10 01:02:57;;;;;;;14.40;10.48;;;;;19.60;100646.00;;;;5059815;28;20186;-77
2023/05/10 01:05:26;;;;;;;14.27;9.65;;;;;19.60;100643.00;;;;5055732;28;20196;-77
2023/05/10 01:07:54;;;;;;;24.13;9.80;;;;;19.60;100653.00;;;;5064192;28;20202;-77
2023/05/10 01:10:22;;;;;;;17.23;9.52;;;;;19.60;100647.00;;;;5052871;28;20199;-77
2023/05/10 01:12:49;;;;;;;16.52;10.77;;;;;19.60;100650.00;;;;5051928;28;20203;-77
2023/05/10 01:15:18;;;;;;;15.52;9.98;;;;;19.60;100648.00;;;;5059423;28;20199;-76
2023/05/10 01:17:47;;;;;;;15.95;10.43;;;;;19.60;100641.00;;;;5060089;28;20218;-77
2023/05/10 01:20:16;;;;;;;14.32;10.43;;;;;19.60;100649.00;;;;5062237;28;20203;-77
2023/05/10 01:23:09;;;;;;;15.63;11.02;;;;;19.60;100648.00;;;;5056371;28;20576;-77
2023/05/10 01:26:08;;;;;;;14.88;11.05;;;;;19.50;100653.00;;;;5062639;28;20191;-77
2023/05/10 01:29:04;;;;;;;13.85;9.65;;;;;19.50;100647.00;;;;5052313;28;20206;-77
2023/05/10 01:32:18;;;;;;;14.68;10.75;;;;;19.50;100641.00;;;;5060295;28;20578;-77
2023/05/10 01:34:55;;;;;;;15.07;10.15;;;;;19.60;100643.00;;;;5045779;28;20304;-77
2023/05/10 01:37:28;;;;;;;17.95;11.57;;;;;19.60;100649.00;;;;5050197;28;20215;-77
2023/05/10 01:40:02;;;;;;;18.73;12.50;;;;;19.60;100650.00;;;;5052943;28;20907;-77
2023/05/10 01:42:36;;;;;;;19.27;13.30;;;;;19.60;100655.00;;;;5058738;28;20245;-77
2023/05/10 01:45:09;;;;;;;21.08;13.35;;;;;19.60;100645.00;;;;5054738;28;20206;-76
2023/05/10 01:47:42;;;;;;;20.73;12.52;;;;;19.60;100646.00;;;;5055172;28;20687;-77
2023/05/10 01:50:16;;;;;;;21.13;13.35;;;;;19.60;100651.00;;;;5049988;28;20202;-77
2023/05/10 01:52:48;;;;;;;18.25;12.38;;;;;19.60;100656.00;;;;5052432;28;20207;-77
2023/05/10 01:55:18;;;;;;;18.00;12.65;;;;;19.60;100654.00;;;;5056155;28;20195;-77
2023/05/10 01:57:50;;;;;;;20.20;12.90;;;;;19.50;100659.00;;;;5049988;28;20235;-77
2023/05/10 02:00:19;;;;;;;19.85;13.50;;;;;19.50;100651.00;;;;5050497;28;20194;-77
2023/05/10 02:02:50;;;;;;;19.17;13.05;;;;;19.50;100654.00;;;;5048501;28;20196;-77
2023/05/10 02:05:18;;;;;;;17.63;12.73;;;;;19.50;100655.00;;;;5062361;28;20214;-76
2023/05/10 02:07:46;;;;;;;19.17;12.40;;;;;19.50;100660.00;;;;5064660;28;20648;-77
2023/05/10 02:10:15;;;;;;;21.83;13.00;;;;;19.40;100663.00;;;;5053334;28;20591;-77
2023/05/10 02:12:45;;;;;;;23.83;13.75;;;;;19.40;100659.00;;;;5060286;28;20191;-77
2023/05/10 02:15:16;;;;;;;22.05;13.00;;;;;19.40;100659.00;;;;5050688;28;20196;-77
2023/05/10 02:17:44;;;;;;;21.95;13.70;;;;;19.40;100665.00;;;;5053137;28;20222;-77
2023/05/10 02:20:13;;;;;;;20.45;13.70;;;;;19.40;100666.00;;;;5050823;28;20200;-78
2023/05/10 02:22:42;;;;;;;21.50;13.25;;;;;19.40;100672.00;;;;5053150;28;20665;-77
2023/05/10 02:25:11;;;;;;;19.73;13.40;;;;;19.30;100671.00;;;;5050101;28;20192;-77
2023/05/10 02:27:39;;;;;;;21.73;13.60;;;;;19.30;100680.00;;;;5057640;28;20207;-77
2023/05/10 02:30:09;;;;;;;22.23;14.45;;;;;19.30;100683.00;;;;5061003;28;20202;-78
2023/05/10 02:32:37;;;;;;;23.50;14.85;;;;;19.30;100680.00;;;;5058473;28;20680;-77
2023/05/10 02:35:06;;;;;;;23.20;14.27;;;;;19.30;100682.00;;;;5049065;28;20234;-77
2023/05/10 02:37:37;;;;;;;25.52;15.15;;;;;19.20;100685.00;;;;5052228;28;20227;-77
2023/05/10 02:40:07;;;;;;;26.00;15.45;;;;;19.20;100684.00;;;;5054484;28;20199;-77
2023/05/10 02:42:36;;;;;;;28.08;16.73;;;;;19.20;100696.00;;;;5054488;28;20194;-78
2023/05/10 02:45:08;;;;;;;25.35;15.70;;;;;19.10;100688.00;;;;5058336;28;20206;-78
2023/05/10 02:47:35;;;;;;;25.38;15.95;;;;;19.10;100689.00;;;;5054260;28;20206;-77
2023/05/10 02:50:03;;;;;;;25.27;14.85;;;;;19.10;100691.00;;;;5051082;28;20199;-77
2023/05/10 02:52:37;;;;;;;25.27;15.88;;;;;19.10;100690.00;;;;5050626;28;20206;-77
2023/05/10 02:55:09;;;;;;;27.17;15.55;;;;;19.10;100684.00;;;;5054888;28;20550;-77
2023/05/10 02:57:42;;;;;;;24.83;14.40;;;;;19.00;100694.00;;;;5055917;28;20692;-77
2023/05/10 03:00:11;;;;;;;28.23;15.38;;;;;19.10;100688.00;;;;5055972;28;20200;-77
2023/05/10 03:02:38;;;;;;;24.25;15.10;;;;;19.10;100698.00;;;;5049653;28;20579;-77
2023/05/10 03:05:07;;;;;;;27.85;16.60;;;;;19.00;100694.00;;;;5058297;28;20203;-77
2023/05/10 03:07:35;;;;;;;26.58;14.80;;;;;19.00;100700.00;;;;5055295;28;20376;-77
2023/05/10 03:10:03;;;;;;;25.70;15.50;;;;;19.00;100699.00;;;;5048495;28;20875;-78
2023/05/10 03:12:42;;;;;;;25.70;15.63;;;;;19.00;100691.00;;;;5056438;28;20672;-77
2023/05/10 03:15:15;;;;;;;23.80;15.45;;;;;19.00;100690.00;;;;5048667;28;20203;-77
2023/05/10 03:17:51;;;;;;;23.80;14.45;;;;;19.00;100680.00;;;;5051212;28;20226;-77
2023/05/10 03:20:27;;;;;;;27.08;16.17;;;;;19.00;100691.00;;;;5057110;28;20234;-77
2023/05/10 03:23:07;;;;;;;23.90;15.07;;;;;19.00;100688.00;;;;5047663;28;20675;-77
2023/05/10 03:25:35;;;;;;;24.20;14.18;;;;;19.00;100698.00;;;;5047205;28;20202;-77
2023/05/10 03:28:05;;;;;;;29.92;16.20;;;;;19.00;100697.00;;;;5047480;28;20199;-77
2023/05/10 03:30:33;;;;;;;23.63;13.98;;;;;19.00;100698.00;;;;5058108;28;20214;-77
2023/05/10 03:33:06;;;;;;;28.48;14.98;;;;;19.00;100700.00;;;;5054884;28;20550;-77
2023/05/10 03:35:33;;;;;;;24.05;14.77;;;;;19.10;100706.00;;;;5047551;28;20289;-77
2023/05/10 03:38:01;;;;;;;23.85;14.43;;;;;19.10;100707.00;;;;5057040;28;20230;-77
2023/05/10 03:40:31;;;;;;;22.42;14.18;;;;;19.10;100701.00;;;;5050942;28;20204;-77
2023/05/10 03:42:58;;;;;;;22.10;14.10;;;;;19.10;100704.00;;;;5047734;28;20215;-77
2023/05/10 03:45:27;;;;;;;23.58;13.98;;;;;19.10;100705.00;;;;5055347;28;20575;-77
2023/05/10 03:47:55;;;;;;;21.23;13.85;;;;;19.10;100715.00;;;;5050888;28;20206;-77
2023/05/10 03:50:22;;;;;;;18.98;12.85;;;;;19.10;100701.00;;;;5054206;28;20196;-77
2023/05/10 03:52:50;;;;;;;23.10;13.35;;;;;19.10;100709.00;;;;5047659;28;20195;-77
2023/05/10 03:55:17;;;;;;;24.17;13.52;;;;;19.10;100707.00;;;;5049530;28;20200;-77
2023/05/10 03:57:45;;;;;;;22.75;12.70;;;;;19.10;100702.00;;;;5048409;28;20200;-77
2023/05/10 04:00:13;;;;;;;21.63;12.85;;;;;19.10;100704.00;;;;5055438;28;20745;-77
2023/05/10 04:02:42;;;;;;;23.85;13.75;;;;;19.10;100706.00;;;;5064515;28;20206;-77
2023/05/10 04:05:10;;;;;;;21.42;13.35;;;;;19.10;100710.00;;;;5058909;28;20195;-77
2023/05/10 04:07:37;;;;;;;27.52;13.75;;;;;19.10;100709.00;;;;5061314;28;20234;-77
2023/05/10 04:10:05;;;;;;;23.10;13.55;;;;;19.10;100708.00;;;;5048653;28;20207;-77
2023/05/10 04:12:33;;;;;;;19.40;12.43;;;;;19.10;100710.00;;;;5049548;28;20188;-77
2023/05/10 04:15:01;;;;;;;19.27;11.07;;;;;19.10;100708.00;;;;5057458;28;20191;-77
2023/05/10 04:17:28;;;;;;;22.05;13.43;;;;;19.10;100709.00;;;;5054576;28;20203;-78
2023/05/10 04:19:57;;;;;;;19.30;12.73;;;;;19.10;100710.00;;;;5048076;28;20226;-78
2023/05/10 04:22:24;;;;;;;19.27;12.63;;;;;19.10;100713.00;;;;5048450;28;20564;-78
2023/05/10 04:24:52;;;;;;;19.60;12.48;;;;;19.10;100715.00;;;;5048499;28;20199;-78
2023/05/10 04:27:19;;;;;;;22.33;13.40;;;;;19.10;100716.00;;;;5050686;28;20203;-78
2023/05/10 04:29:46;;;;;;;19.88;12.63;;;;;19.10;100710.00;;;;5054150;28;20206;-77
2023/05/10 04:32:16;;;;;;;26.17;14.25;;;;;19.10;100714.00;;;;5052169;28;20196;-78
2023/05/10 04:34:43;;;;;;;21.15;13.55;;;;;19.10;100716.00;;;;5053465;28;20230;-77
2023/05/10 04:37:12;;;;;;;24.45;12.45;;;;;19.10;100711.00;;;;5064314;28;20203;-77
2023/05/10 04:39:39;;;;;;;24.13;14.23;;;;;19.20;100707.00;;;;5054983;28;20224;-77
2023/05/10 04:42:07;;;;;;;20.92;13.40;;;;;19.20;100709.00;;;;5061163;28;20281;-77
2023/05/10 04:44:34;;;;;;;25.52;15.45;;;;;19.20;100714.00;;;;5054869;28;20233;-78
2023/05/10 04:47:02;;;;;;;25.00;14.63;;;;;19.20;100722.00;;;;5059395;28;20210;-77
2023/05/10 04:49:29;;;;;;;24.63;14.05;;;;;19.20;100716.00;;;;5052979;28;20214;-77
2023/05/10 04:51:56;;;;;;;25.40;14.77;;;;;19.20;100718.00;;;;5061642;28;20573;-78
2023/05/10 04:54:25;;;;;;;29.08;15.10;;;;;19.20;100719.00;;;;5060579;28;20207;-77
2023/05/10 04:56:52;;;;;;;29.70;15.02;;;;;19.20;100719.00;;;;5054726;28;20273;-77
2023/05/10 04:59:20;;;;;;;27.15;15.68;;;;;19.20;100727.00;;;;5060344;28;20661;-78
2023/05/10 05:01:47;;;;;;;27.98;14.43;;;;;19.20;100730.00;;;;5063320;28;20195;-78
2023/05/10 05:04:15;;;;;;;28.95;15.23;;;;;19.20;100723.00;;;;5053103;28;20199;-78
2023/05/10 05:06:42;;;;;;;28.42;14.90;;;;;19.20;100725.00;;;;5058421;28;20288;-78
2023/05/10 05:09:10;;;;;;;26.83;16.33;;;;;19.30;100725.00;;;;5051502;28;20199;-77
2023/05/10 05:11:40;;;;;;;29.42;14.80;;;;;19.30;100724.00;;;;5050909;28;20188;-78
2023/05/10 05:14:07;;;;;;;25.38;15.00;;;;;19.30;100729.00;;;;5059648;28;20196;-78
2023/05/10 05:16:34;;;;;;;26.88;14.40;;;;;19.30;100730.00;;;;5053277;28;20203;-78
2023/05/10 05:19:02;;;;;;;26.90;14.90;;;;;19.30;100731.00;;;;5056145;28;20233;-78
2023/05/10 05:21:29;;;;;;;28.73;15.85;;;;;19.30;100737.00;;;;5059512;28;20199;-78
2023/05/10 05:23:56;;;;;;;27.88;15.05;;;;;19.40;100746.00;;;;5051018;28;20192;-78
2023/05/10 05:26:23;;;;;;;26.05;16.33;;;;;19.30;100744.00;;;;5060204;28;20191;-78
2023/05/10 05:28:54;;;;;;;30.23;15.23;;;;;19.30;100750.00;;;;5054510;28;20187;-78
2023/05/10 05:31:22;;;;;;;27.85;15.32;;;;;19.40;100750.00;;;;5056561;28;21168;-78
2023/05/10 05:33:49;;;;;;;29.08;16.48;;;;;19.40;100751.00;;;;5060571;28;20199;-78
2023/05/10 05:36:16;;;;;;;28.05;15.68;;;;;19.40;100748.00;;;;5057143;28;20212;-77
2023/05/10 05:38:43;;;;;;;26.10;16.25;;;;;19.40;100750.00;;;;5059028;28;20226;-77
2023/05/10 05:41:11;;;;;;;28.58;16.40;;;;;19.40;100753.00;;;;5060985;28;20195;-77
2023/05/10 05:43:38;;;;;;;25.40;14.60;;;;;19.40;100757.00;;;;5050528;28;20219;-78
2023/05/10 05:46:07;;;;;;;27.50;15.05;;;;;19.40;100757.00;;;;5051111;28;20594;-78
2023/05/10 05:48:34;;;;;;;27.63;16.17;;;;;19.40;100759.00;;;;5055403;28;20227;-77
2023/05/10 05:51:02;;;;;;;40.08;15.60;;;;;19.40;100755.00;;;;5049359;28;20932;-78
2023/05/10 05:53:29;;;;;;;27.35;14.13;;;;;19.40;100766.00;;;;5051227;28;20196;-76
2023/05/10 05:55:58;;;;;;;28.52;15.05;;;;;19.40;100760.00;;;;5050589;28;20196;-77
2023/05/10 05:58:26;;;;;;;22.95;13.95;;;;;19.40;100765.00;;;;5058112;28;20683;-77
2023/05/10 06:00:54;;;;;;;25.83;15.65;;;;;19.40;100765.00;;;;5056202;28;20199;-78
2023/05/10 06:03:23;;;;;;;20.92;14.18;;;;;19.40;100765.00;;;;5061542;28;20195;-79
2023/05/10 06:05:50;;;;;;;23.13;14.77;;;;;19.40;100775.00;;;;5060132;28;20199;-78
2023/05/10 06:08:17;;;;;;;20.38;13.80;;;;;19.40;100775.00;;;;5051497;28;20212;-78
2023/05/10 06:10:45;;;;;;;24.98;14.98;;;;;19.40;100778.00;;;;5064251;28;20190;-77
2023/05/10 06:13:12;;;;;;;24.77;14.75;;;;;19.40;100784.00;;;;5050087;28;20914;-78
2023/05/10 06:15:40;;;;;;;24.63;14.98;;;;;19.40;100782.00;;;;5056673;28;20680;-78
2023/05/10 06:18:07;;;;;;;26.73;14.93;;;;;19.40;100787.00;;;;5054570;28;20202;-78
2023/05/10 06:20:36;;;;;;;24.88;14.57;;;;;19.30;100794.00;;;;5050723;28;20231;-77
2023/05/10 06:23:03;;;;;;;20.67;14.15;;;;;19.40;100788.00;;;;5056719;28;20202;-77
2023/05/10 06:25:31;;;;;;;24.85;15.45;;;;;19.40;100792.00;;;;5060350;28;20187;-78
2023/05/10 06:27:58;;;;;;;21.85;13.10;;;;;19.40;100785.00;;;;5049290;28;20200;-78
2023/05/10 06:30:28;;;;;;;23.55;14.18;;;;;19.30;100796.00;;;;5049519;28;20202;-79
2023/05/10 06:32:55;;;;;;;22.55;14.48;;;;;19.30;100793.00;;;;5049529;28;20630;-78
2023/05/10 06:35:23;;;;;;;23.23;13.85;;;;;19.30;100797.00;;;;5052427;28;20230;-78
2023/05/10 06:37:52;;;;;;;21.60;13.50;;;;;19.30;100802.00;;;;5058394;28;20191;-78
2023/05/10 06:40:19;;;;;;;20.05;12.68;;;;;19.30;100805.00;;;;5052263;28;20623;-78
2023/05/10 06:42:47;;;;;;;22.15;13.45;;;;;19.30;100800.00;;;;5048558;28;20192;-78
2023/05/10 06:45:15;;;;;;;21.63;13.50;;;;;19.40;100807.00;;;;5049259;28;20210;-78
2023/05/10 06:47:42;;;;;;;23.80;14.27;;;;;19.40;100803.00;;;;5055272;28;20219;-78
2023/05/10 06:50:11;;;;;;;18.83;12.45;;;;;19.40;100817.00;;;;5051032;28;20210;-78
2023/05/10 06:52:38;;;;;;;19.65;12.38;;;;;19.50;100808.00;;;;5063239;28;20191;-78
2023/05/10 06:55:08;;;;;;;18.60;12.13;;;;;19.50;100814.00;;;;5058669;28;20210;-78
2023/05/10 06:57:36;;;;;;;19.00;11.48;;;;;19.50;100812.00;;;;5056832;28;20679;-79
2023/05/10 07:00:04;;;;;;;19.67;11.55;;;;;19.60;100811.00;;;;5051834;28;20226;-78
2023/05/10 07:02:32;;;;;;;16.98;9.80;;;;;19.60;100811.00;;;;5066618;28;20930;-78
2023/05/10 07:04:59;;;;;;;16.38;10.35;;;;;19.60;100809.00;;;;5054784;28;20199;-78
2023/05/10 07:07:27;;;;;;;13.20;9.32;;;;;19.60;100817.00;;;;5051942;28;20207;-78
2023/05/10 07:09:54;;;;;;;13.35;9.35;;;;;19.60;100823.00;;;;5059407;28;20202;-78
2023/05/10 07:12:23;;;;;;;15.90;9.30;;;;;19.60;100821.00;;;;5064688;28;20199;-78
2023/05/10 07:14:50;;;;;;;13.13;8.50;;;;;19.70;100823.00;;;;5053063;28;20214;-78
2023/05/10 07:17:17;;;;;;;12.43;8.20;;;;;19.70;100832.00;;;;5048222;28;20192;-78
2023/05/10 07:19:45;;;;;;;9.82;6.63;;;;;19.70;100828.00;;;;5051408;28;20229;-78
2023/05/10 07:22:12;;;;;;;9.52;6.90;;;;;19.70;100833.00;;;;5059190;28;20203;-78
2023/05/10 07:24:40;;;;;;;6.78;4.88;;;;;19.80;100837.00;;;;5049080;28;20200;-78
2023/05/10 07:27:07;;;;;;;6.78;5.10;;;;;19.80;100839.00;;;;5055056;28;20780;-79
2023/05/10 07:29:37;;;;;;;7.05;4.78;;;;;19.80;100848.00;;;;5049215;28;20290;-79
2023/05/10 07:32:04;;;;;;;5.93;4.93;;;;;19.90;100857.00;;;;5054851;28;20203;-78
2023/05/10 07:34:32;;;;;;;6.18;4.93;;;;;19.90;100859.00;;;;5049099;28;20227;-79
2023/05/10 07:37:00;;;;;;;6.38;4.35;;;;;19.90;100855.00;;;;5052425;28;20876;-78
2023/05/10 07:39:27;;;;;;;6.72;4.05;;;;;20.00;100858.00;;;;5050712;28;20219;-78
2023/05/10 07:41:55;;;;;;;5.57;3.97;;;;;20.00;100856.00;;;;5061916;28;20188;-78
2023/05/10 07:44:22;;;;;;;6.22;3.75;;;;;20.10;100858.00;;;;5047822;28;20206;-79
2023/05/10 07:46:51;;;;;;;5.93;4.18;;;;;20.10;100860.00;;;;5058363;28;20557;-78
2023/05/10 07:49:18;;;;;;;5.88;4.22;;;;;20.10;100864.00;;;;5051043;28;20884;-78
2023/05/10 07:51:45;;;;;;;6.90;4.15;;;;;20.10;100860.00;;;;5054834;28;20199;-77
2023/05/10 07:54:13;;;;;;;4.50;3.42;;;;;20.10;100864.00;;;;5059926;28;20199;-77
2023/05/10 07:56:45;;;;;;;5.20;3.42;;;;;20.10;100863.00;;;;5051473;28;20199;-77
2023/05/10 07:59:17;;;;;;;5.03;3.40;;;;;20.10;100869.00;;;;5059436;28;20285;-78
2023/05/10 08:01:45;;;;;;;4.78;3.60;;;;;20.10;100871.00;;;;5034074;28;20692;-78
2023/05/10 08:04:15;;;;;;;4.63;3.33;;;;;20.00;100877.00;;;;5059263;28;20207;-78
2023/05/10 08:06:43;;;;;;;7.55;4.18;;;;;20.10;100879.00;;;;5062487;28;20195;-78
2023/05/10 08:09:10;;;;;;;5.32;3.60;;;;;20.10;100882.00;;;;5055628;28;20206;-77
2023/05/10 08:11:38;;;;;;;4.90;3.63;;;;;20.20;100882.00;;;;5055679;28;20231;-78
2023/05/10 08:14:05;;;;;;;4.95;3.65;;;;;20.20;100888.00;;;;5065550;28;20752;-78
2023/05/10 08:16:34;;;;;;;5.00;3.33;;;;;20.20;100885.00;;;;5055421;28;20195;-78
2023/05/10 08:19:01;;;;;;;7.45;4.20;;;;;20.20;100891.00;;;;5061628;28;20199;-78
2023/05/10 08:21:31;;;;;;;4.95;3.90;;;;;20.20;100885.00;;;;5059418;28;20202;-78
2023/05/10 08:23:58;;;;;;;8.10;4.20;;;;;20.30;100893.00;;;;5052636;28;20719;-78
2023/05/10 08:26:26;;;;;;;5.20;3.38;;;;;20.30;100900.00;;;;5057146;28;20276;-78
2023/05/10 08:28:53;;;;;;;5.55;3.28;;;;;20.40;100903.00;;;;5060155;28;20773;-77
2023/05/10 08:31:20;;;;;;;4.93;3.70;;;;;20.40;100910.00;;;;5066270;28;20199;-78
2023/05/10 08:33:48;;;;;;;7.40;4.20;;;;;20.40;100913.00;;;;5061817;28;20968;-78
2023/05/10 08:36:19;;;;;;;7.55;4.63;;;;;20.40;100910.00;;;;5061426;28;20212;-78
2023/05/10 08:38:48;;;;;;;9.38;4.60;;;;;20.40;100908.00;;;;5059171;28;20196;-78
2023/05/10 08:41:15;;;;;;;5.85;4.20;;;;;20.50;100917.00;;;;5059148;28;20285;-78
2023/05/10 08:43:48;;;;;;;6.25;4.03;;;;;20.50;100916.00;;;;5056570;28;20195;-78
2023/05/10 08:46:18;;;;;;;6.95;4.57;;;;;20.50;100919.00;;;;5057093;28;20204;-76
2023/05/10 08:48:46;;;;;;;6.45;4.40;;;;;20.50;100923.00;;;;5060902;28;20445;-78
2023/05/10 08:51:16;;;;;;;5.97;4.00;;;;;20.50;100920.00;;;;5056241;28;20202;-79
2023/05/10 08:53:46;;;;;;;7.68;4.53;;;;;20.50;100926.00;;;;5051735;28;20580;-78
2023/05/10 08:56:17;;;;;;;6.97;4.35;;;;;20.50;100923.00;;;;5054266;28;20203;-79
2023/05/10 08:59:00;;;;;;;6.35;4.03;;;;;20.60;100928.00;;;;5055259;28;20669;-78
2023/05/10 09:01:34;;;;;;;7.85;5.10;;;;;20.60;100929.00;;;;5057031;28;20344;-78
2023/05/10 09:04:02;;;;;;;6.32;4.53;;;;;20.60;100929.00;;;;5059915;28;20226;-78
2023/05/10 09:06:30;;;;;;;7.35;4.15;;;;;20.70;100926.00;;;;5053551;28;20195;-79
2023/05/10 09:09:00;;;;;;;6.72;4.25;;;;;20.70;100931.00;;;;5064103;28;20199;-78
2023/05/10 09:11:29;;;;;;;6.80;3.83;;;;;20.70;100940.00;;;;5058265;28;20806;-78
2023/05/10 09:13:57;;;;;;;5.05;4.05;;;;;20.80;100929.00;;;;5054160;28;20195;-78
2023/05/10 09:16:25;;;;;;;5.97;4.22;;;;;20.80;100932.00;;;;5057434;28;20207;-78
2023/05/10 09:18:52;;;;;;;7.85;4.82;;;;;20.90;100929.00;;;;5054368;28;20199;-78
2023/05/10 09:21:21;;;;;;;6.78;4.50;;;;;20.90;100931.00;;;;5068139;28;20230;-77
2023/05/10 09:23:49;;;;;;;6.95;4.03;;;;;21.00;100941.00;;;;5059322;28;20325;-78
2023/05/10 09:26:17;;;;;;;7.50;4.60;;;;;21.00;100941.00;;;;5050642;28;20294;-78
2023/05/10 09:28:56;;;;;;;5.40;3.90;;;;;21.00;100940.00;;;;5053022;28;20287;-78
2023/05/10 09:31:46;;;;;;;4.90;4.15;;;;;21.10;100940.00;;;;5051383;28;20215;-78
2023/05/10 09:34:16;;;;;;;7.72;4.88;;;;;21.20;100946.00;;;;5051807;28;20311;-78
2023/05/10 09:36:53;;;;;;;6.00;3.97;;;;;21.10;100946.00;;;;5067164;28;20231;-77
2023/05/10 09:39:22;;;;;;;7.82;4.22;;;;;21.30;100949.00;;;;5059103;28;20278;-78
2023/05/10 09:41:49;;;;;;;5.13;4.40;;;;;21.30;100947.00;;;;5049321;28;20671;-79
2023/05/10 09:44:20;;;;;;;5.47;4.00;;;;;21.30;100957.00;;;;5049886;28;20584;-78
2023/05/10 09:46:52;;;;;;;6.82;4.95;;;;;21.30;100962.00;;;;5058473;28;20206;-78
2023/05/10 09:49:20;;;;;;;6.22;3.92;;;;;21.40;100972.00;;;;5058234;28;20206;-79
2023/05/10 09:51:48;;;;;;;5.78;4.07;;;;;21.40;100970.00;;;;5058981;28;20191;-78
2023/05/10 09:54:17;;;;;;;7.93;4.63;;;;;21.40;100968.00;;;;5050790;28;20671;-78
2023/05/10 09:56:44;;;;;;;5.43;3.85;;;;;21.40;100978.00;;;;5054041;28;20203;-78
2023/05/10 09:59:13;;;;;;;7.03;4.63;;;;;21.40;100983.00;;;;5050659;28;20286;-78
2023/05/10 10:01:42;;;;;;;7.13;4.32;;;;;21.40;100978.00;;;;5064207;28;20223;-78
2023/05/10 10:04:10;;;;;;;5.38;4.22;;;;;21.50;100975.00;;;;5055072;28;20203;-78
2023/05/10 10:06:38;;;;;;;5.95;4.50;;;;;21.60;100974.00;;;;5051855;28;20187;-78
2023/05/10 10:09:06;;;;;;;5.55;4.03;;;;;21.60;100977.00;;;;5058811;28;20202;-78
2023/05/10 10:11:35;;;;;;;6.75;4.13;;;;;21.70;100982.00;;;;5052018;28;20203;-78
2023/05/10 10:14:02;;;;;;;5.07;3.75;;;;;21.70;100983.00;;;;5050679;28;20657;-78
2023/05/10 10:16:31;;;;;;;5.57;4.47;;;;;21.80;100986.00;;;;5049816;28;20206;-78
2023/05/10 10:19:00;;;;;;;5.45;4.00;;;;;21.80;100981.00;;;;5054419;28;20198;-80
2023/05/10 10:21:27;;;;;;;6.00;4.13;;;;;21.80;100980.00;;;;5052943;28;20264;-79
2023/05/10 10:23:54;;;;;;;6.20;4.15;;;;;21.90;100986.00;;;;5048894;28;20196;-79
2023/05/10 10:26:22;;;;;;;6.35;4.30;;;;;21.90;100982.00;;;;5054078;28;20195;-79
2023/05/10 10:29:01;;;;;;;5.45;3.60;;;;;21.90;100985.00;;;;5064740;28;20202;-79
2023/05/10 10:31:37;;;;;;;5.03;4.20;;;;;21.90;100989.00;;;;5057133;28;20207;-79
2023/05/10 10:34:09;;;;;;;4.32;3.67;;;;;22.00;100988.00;;;;5050287;28;20227;-79
2023/05/10 10:36:43;;;;;;;4.35;3.75;;;;;21.90;100994.00;;;;5058061;28;20219;-79
2023/05/10 10:39:11;;;;;;;4.90;3.63;;;;;22.00;100993.00;;;;5053366;28;20199;-79
2023/05/10 10:41:43;;;;;;;5.13;3.63;;;;;22.00;100998.00;;;;5049295;28;20219;-79
2023/05/10 10:44:41;;;;;;;5.28;3.53;;;;;21.90;100995.00;;;;5055530;28;20202;-79
2023/05/10 10:47:28;;;;;;;4.25;3.60;;;;;22.00;100993.00;;;;5056335;28;20195;-79
2023/05/10 10:50:06;;;;;;;6.03;3.42;;;;;21.80;100998.00;;;;5061909;28;20199;-79
2023/05/10 10:52:35;;;;;;;5.47;3.42;;;;;21.90;100998.00;;;;5050579;28;20196;-79
2023/05/10 10:55:06;;;;;;;5.13;4.13;;;;;21.90;100986.00;;;;5057892;28;20912;-79
2023/05/10 10:57:34;;;;;;;5.10;3.33;;;;;22.00;100998.00;;;;5047824;28;20188;-80
2023/05/10 11:00:26;;;;;;;5.25;3.65;;;;;21.90;100993.00;;;;5056872;28;20200;-79
2023/05/10 11:02:55;;;;;;;3.72;3.00;;;;;22.00;100987.00;;;;5058715;28;20531;-79
2023/05/10 11:05:42;;;;;;;3.53;2.78;;;;;22.00;100993.00;;;;5047930;28;20223;-79
2023/05/10 11:08:13;;;;;;;4.47;2.75;;;;;22.10;100991.00;;;;5056238;28;20195;-80
2023/05/10 11:10:41;;;;;;;3.67;2.72;;;;;22.20;100986.00;;;;5055395;28;20199;-80
2023/05/10 11:13:10;;;;;;;3.03;2.55;;;;;22.30;100992.00;;;;5056936;28;20204;-79
2023/05/10 11:15:38;;;;;;;3.55;2.65;;;;;22.30;100985.00;;;;5055506;28;20210;-79
2023/05/10 11:18:21;;;;;;;3.35;2.47;;;;;22.30;100985.00;;;;5053791;28;20203;-79
2023/05/10 11:20:55;;;;;;;4.60;2.63;;;;;22.40;100995.00;;;;5063873;28;20222;-79
2023/05/10 11:23:23;;;;;;;3.50;2.70;;;;;22.50;100991.00;;;;5049001;28;20210;-79
2023/05/10 11:25:51;;;;;;;3.40;2.35;;;;;22.60;100997.00;;;;5047962;28;21466;-79
2023/05/10 11:28:19;;;;;;;2.55;2.30;;;;;22.70;100991.00;;;;5048647;28;20195;-80
2023/05/10 11:30:46;;;;;;;4.60;2.58;;;;;22.80;100992.00;;;;5053843;28;20203;-79
2023/05/10 11:33:19;;;;;;;3.05;2.38;;;;;22.90;100999.00;;;;5050673;28;20199;-80
2023/05/10 11:35:47;;;;;;;2.75;2.10;;;;;23.00;100993.00;;;;5047093;28;20227;-80
2023/05/10 11:38:15;;;;;;;2.65;2.33;;;;;23.10;100996.00;;;;5059916;28;20216;-79
2023/05/10 11:40:43;;;;;;;3.33;2.25;;;;;23.30;101006.00;;;;5063298;28;20225;-79
2023/05/10 11:43:12;;;;;;;3.35;2.08;;;;;23.30;100997.00;;;;5065249;28;21087;-79
2023/05/10 11:45:40;;;;;;;2.92;2.10;;;;;23.30;100997.00;;;;5059533;28;20196;-80
2023/05/10 11:48:08;;;;;;;2.17;1.95;;;;;23.30;101001.00;;;;5052960;28;20204;-80
2023/05/10 11:50:36;;;;;;;4.03;2.58;;;;;23.40;100996.00;;;;5059720;28;20202;-80
2023/05/10 11:53:03;;;;;;;3.15;2.10;;;;;23.40;101004.00;;;;5054397;28;20192;-80
2023/05/10 11:55:34;;;;;;;3.65;2.20;;;;;23.30;101014.00;;;;5052458;28;20572;-79
2023/05/10 11:58:03;;;;;;;3.97;2.58;;;;;23.30;101015.00;;;;5051468;28;20204;-80
2023/05/10 12:00:32;;;;;;;3.95;2.53;;;;;23.20;101012.00;;;;5054214;28;20219;-80
2023/05/10 12:03:01;;;;;;;3.83;2.33;;;;;23.20;101011.00;;;;5054369;28;20195;-80
2023/05/10 12:05:28;;;;;;;3.53;2.35;;;;;23.20;101023.00;;;;5050671;28;20225;-79
2023/05/10 12:08:13;;;;;;;2.90;1.90;;;;;23.00;101016.00;;;;5063287;28;20203;-78
2023/05/10 12:10:42;;;;;;;2.67;2.20;;;;;23.10;101012.00;;;;5061384;28;20611;-79